sensor_id;sensor_type;location;lat;lon;timestamp;pressure;altitude;pressure_sealevel;temperature;humidity
79586;BME280;69054;50.866;4.636;2023-04-16T00:00:06;101897.19;;;6.66;76.29
79586;BME280;69054;50.866;4.636;2023-04-16T00:02:32;101895.63;;;6.73;76.37
79586;BME280;69054;50.866;4.636;2023-04-16T00:04:58;101897.78;;;6.69;76.32
79586;BME280;69054;50.866;4.636;2023-04-16T00:07:24;101888.59;;;6.70;76.68
79586;BME280;69054;50.866;4.636;2023-04-16T00:09:49;101893.47;;;6.77;75.69
79586;BME280;69054;50.866;4.636;2023-04-16T00:12:15;101887.88;;;6.78;75.44
79586;BME280;69054;50.866;4.636;2023-04-16T00:14:41;101895.47;;;6.74;75.69
79586;BME280;69054;50.866;4.636;2023-04-16T00:17:08;101890.75;;;6.77;75.64
79586;BME280;69054;50.866;4.636;2023-04-16T00:19:33;101883.75;;;6.74;75.17
79586;BME280;69054;50.866;4.636;2023-04-16T00:21:58;101885.75;;;6.72;75.48
79586;BME280;69054;50.866;4.636;2023-04-16T00:24:24;101878.34;;;6.74;75.20
79586;BME280;69054;50.866;4.636;2023-04-16T00:26:50;101888.34;;;6.83;75.49
79586;BME280;69054;50.866;4.636;2023-04-16T00:29:16;101885.16;;;6.78;74.54
79586;BME280;69054;50.866;4.636;2023-04-16T00:31:41;101877.91;;;6.79;74.76
79586;BME280;69054;50.866;4.636;2023-04-16T00:34:07;101884.47;;;6.76;75.28
79586;BME280;69054;50.866;4.636;2023-04-16T00:36:32;101878.88;;;6.78;75.21
79586;BME280;69054;50.866;4.636;2023-04-16T00:38:57;101874.44;;;6.77;74.87
79586;BME280;69054;50.866;4.636;2023-04-16T00:41:23;101873.75;;;6.74;75.15
79586;BME280;69054;50.866;4.636;2023-04-16T00:43:48;101876.91;;;6.70;75.08
79586;BME280;69054;50.866;4.636;2023-04-16T00:46:15;101871.47;;;6.70;75.47
79586;BME280;69054;50.866;4.636;2023-04-16T00:48:42;101867.91;;;6.69;75.43
79586;BME280;69054;50.866;4.636;2023-04-16T00:51:09;101872.16;;;6.72;74.80
79586;BME280;69054;50.866;4.636;2023-04-16T00:53:35;101871.19;;;6.73;75.26
79586;BME280;69054;50.866;4.636;2023-04-16T00:56:05;101879.31;;;6.83;75.46
79586;BME280;69054;50.866;4.636;2023-04-16T00:58:33;101872.47;;;6.79;74.91
79586;BME280;69054;50.866;4.636;2023-04-16T01:00:59;101874.31;;;6.78;75.16
79586;BME280;69054;50.866;4.636;2023-04-16T01:03:36;101875.19;;;6.79;74.74
79586;BME280;69054;50.866;4.636;2023-04-16T01:06:02;101882.75;;;6.75;75.03
79586;BME280;69054;50.866;4.636;2023-04-16T01:08:27;101874.31;;;6.78;75.38
79586;BME280;69054;50.866;4.636;2023-04-16T01:10:54;101880.88;;;6.85;75.17
79586;BME280;69054;50.866;4.636;2023-04-16T01:13:19;101875.75;;;6.82;74.96
79586;BME280;69054;50.866;4.636;2023-04-16T01:15:44;101877.31;;;6.85;75.56
79586;BME280;69054;50.866;4.636;2023-04-16T01:18:17;101878.47;;;6.82;75.26
79586;BME280;69054;50.866;4.636;2023-04-16T01:20:43;101879.16;;;6.84;75.15
79586;BME280;69054;50.866;4.636;2023-04-16T01:23:09;101876.88;;;6.80;75.49
79586;BME280;69054;50.866;4.636;2023-04-16T01:25:35;101880.88;;;6.85;75.23
79586;BME280;69054;50.866;4.636;2023-04-16T01:28:00;101884.59;;;6.84;75.28
79586;BME280;69054;50.866;4.636;2023-04-16T01:30:26;101881.16;;;6.82;75.79
79586;BME280;69054;50.866;4.636;2023-04-16T01:32:51;101885.03;;;6.80;76.19
79586;BME280;69054;50.866;4.636;2023-04-16T01:35:16;101890.03;;;6.74;77.09
79586;BME280;69054;50.866;4.636;2023-04-16T01:37:43;101889.50;;;6.71;77.90
79586;BME280;69054;50.866;4.636;2023-04-16T01:40:09;101896.34;;;6.65;79.04
79586;BME280;69054;50.866;4.636;2023-04-16T01:42:34;101892.34;;;6.60;79.59
79586;BME280;69054;50.866;4.636;2023-04-16T01:45:00;101892.91;;;6.53;80.01
79586;BME280;69054;50.866;4.636;2023-04-16T01:47:25;101897.63;;;6.51;81.64
79586;BME280;69054;50.866;4.636;2023-04-16T01:49:51;101897.31;;;6.45;82.20
79586;BME280;69054;50.866;4.636;2023-04-16T01:52:16;101899.34;;;6.43;81.48
79586;BME280;69054;50.866;4.636;2023-04-16T01:54:43;101900.03;;;6.35;82.79
79586;BME280;69054;50.866;4.636;2023-04-16T01:57:08;101901.44;;;6.29;83.24
79586;BME280;69054;50.866;4.636;2023-04-16T01:59:34;101901.72;;;6.26;84.25
79586;BME280;69054;50.866;4.636;2023-04-16T02:02:10;101901.16;;;6.32;85.35
79586;BME280;69054;50.866;4.636;2023-04-16T02:04:44;101901.72;;;6.26;85.70
79586;BME280;69054;50.866;4.636;2023-04-16T02:07:10;101900.00;;;6.15;85.76
79586;BME280;69054;50.866;4.636;2023-04-16T02:09:36;101898.13;;;6.16;87.40
79586;BME280;69054;50.866;4.636;2023-04-16T02:12:03;101900.56;;;6.09;85.78
79586;BME280;69054;50.866;4.636;2023-04-16T02:14:29;101902.56;;;6.07;86.91
79586;BME280;69054;50.866;4.636;2023-04-16T02:16:55;101895.56;;;6.04;86.02
79586;BME280;69054;50.866;4.636;2023-04-16T02:19:20;101895.22;;;5.98;87.24
79586;BME280;69054;50.866;4.636;2023-04-16T02:21:46;101898.81;;;5.98;88.27
79586;BME280;69054;50.866;4.636;2023-04-16T02:24:11;101897.94;;;5.98;88.04
79586;BME280;69054;50.866;4.636;2023-04-16T02:26:37;101896.50;;;5.94;88.16
79586;BME280;69054;50.866;4.636;2023-04-16T02:29:02;101901.31;;;5.90;89.37
79586;BME280;69054;50.866;4.636;2023-04-16T02:31:27;101899.91;;;5.86;90.07
79586;BME280;69054;50.866;4.636;2023-04-16T02:33:54;101899.16;;;5.84;89.68
79586;BME280;69054;50.866;4.636;2023-04-16T02:36:20;101896.44;;;5.84;89.38
79586;BME280;69054;50.866;4.636;2023-04-16T02:38:45;101898.72;;;5.79;89.84
79586;BME280;69054;50.866;4.636;2023-04-16T02:41:11;101890.44;;;5.80;90.78
79586;BME280;69054;50.866;4.636;2023-04-16T02:43:36;101902.47;;;5.88;90.16
79586;BME280;69054;50.866;4.636;2023-04-16T02:46:02;101899.63;;;5.89;89.59
79586;BME280;69054;50.866;4.636;2023-04-16T02:48:27;101910.34;;;5.91;90.73
79586;BME280;69054;50.866;4.636;2023-04-16T02:50:52;101904.16;;;5.89;90.69
79586;BME280;69054;50.866;4.636;2023-04-16T02:53:18;101906.19;;;5.86;90.46
79586;BME280;69054;50.866;4.636;2023-04-16T02:55:53;101907.28;;;5.84;91.14
79586;BME280;69054;50.866;4.636;2023-04-16T02:58:20;101900.19;;;5.83;92.23
79586;BME280;69054;50.866;4.636;2023-04-16T03:00:46;101900.75;;;5.86;92.17
79586;BME280;69054;50.866;4.636;2023-04-16T03:03:11;101899.56;;;5.79;91.72
79586;BME280;69054;50.866;4.636;2023-04-16T03:05:37;101895.41;;;5.75;91.47
79586;BME280;69054;50.866;4.636;2023-04-16T03:08:03;101905.00;;;5.79;91.91
79586;BME280;69054;50.866;4.636;2023-04-16T03:10:28;101898.59;;;5.80;92.21
79586;BME280;69054;50.866;4.636;2023-04-16T03:12:53;101905.75;;;5.81;91.63
79586;BME280;69054;50.866;4.636;2023-04-16T03:15:19;101914.13;;;5.78;92.19
79586;BME280;69054;50.866;4.636;2023-04-16T03:17:45;101903.75;;;5.83;92.40
79586;BME280;69054;50.866;4.636;2023-04-16T03:20:10;101909.88;;;5.85;92.32
79586;BME280;69054;50.866;4.636;2023-04-16T03:22:37;101909.88;;;5.85;92.18
79586;BME280;69054;50.866;4.636;2023-04-16T03:25:02;101907.03;;;5.87;92.30
79586;BME280;69054;50.866;4.636;2023-04-16T03:27:28;101906.88;;;5.89;92.52
79586;BME280;69054;50.866;4.636;2023-04-16T03:29:53;101912.44;;;5.87;92.88
79586;BME280;69054;50.866;4.636;2023-04-16T03:32:18;101911.47;;;5.88;92.54
79586;BME280;69054;50.866;4.636;2023-04-16T03:34:44;101901.72;;;5.85;92.60
79586;BME280;69054;50.866;4.636;2023-04-16T03:37:09;101902.00;;;5.82;92.81
79586;BME280;69054;50.866;4.636;2023-04-16T03:39:36;101902.75;;;5.84;93.66
79586;BME280;69054;50.866;4.636;2023-04-16T03:42:01;101895.88;;;5.90;93.54
79586;BME280;69054;50.866;4.636;2023-04-16T03:44:27;101902.91;;;5.93;93.40
79586;BME280;69054;50.866;4.636;2023-04-16T03:46:53;101902.38;;;5.99;92.50
79586;BME280;69054;50.866;4.636;2023-04-16T03:49:19;101898.75;;;5.89;92.83
79586;BME280;69054;50.866;4.636;2023-04-16T03:51:44;101903.47;;;5.86;93.35
79586;BME280;69054;50.866;4.636;2023-04-16T03:54:10;101902.88;;;5.83;93.47
79586;BME280;69054;50.866;4.636;2023-04-16T03:56:35;101903.03;;;5.81;93.76
79586;BME280;69054;50.866;4.636;2023-04-16T03:59:01;101900.03;;;5.84;93.95
79586;BME280;69054;50.866;4.636;2023-04-16T04:01:26;101907.47;;;5.92;94.20
79586;BME280;69054;50.866;4.636;2023-04-16T04:03:52;101913.09;;;6.00;93.92
79586;BME280;69054;50.866;4.636;2023-04-16T04:06:17;101901.41;;;6.00;94.06
79586;BME280;69054;50.866;4.636;2023-04-16T04:08:42;101905.47;;;5.94;93.40
79586;BME280;69054;50.866;4.636;2023-04-16T04:11:08;101905.91;;;5.90;93.49
79586;BME280;69054;50.866;4.636;2023-04-16T04:13:33;101904.16;;;5.89;94.45
79586;BME280;69054;50.866;4.636;2023-04-16T04:15:58;101901.19;;;5.92;94.72
79586;BME280;69054;50.866;4.636;2023-04-16T04:18:23;101900.91;;;5.95;94.81
79586;BME280;69054;50.866;4.636;2023-04-16T04:20:50;101907.81;;;5.99;94.82
79586;BME280;69054;50.866;4.636;2023-04-16T04:23:15;101903.69;;;6.04;93.61
79586;BME280;69054;50.866;4.636;2023-04-16T04:25:41;101900.25;;;6.02;93.81
79586;BME280;69054;50.866;4.636;2023-04-16T04:28:06;101907.66;;;6.00;94.32
79586;BME280;69054;50.866;4.636;2023-04-16T04:30:31;101907.25;;;6.05;94.07
79586;BME280;69054;50.866;4.636;2023-04-16T04:32:57;101912.69;;;6.05;94.14
79586;BME280;69054;50.866;4.636;2023-04-16T04:35:22;101911.69;;;6.06;94.29
79586;BME280;69054;50.866;4.636;2023-04-16T04:37:47;101910.72;;;6.07;94.59
79586;BME280;69054;50.866;4.636;2023-04-16T04:40:13;101919.41;;;6.11;94.55
79586;BME280;69054;50.866;4.636;2023-04-16T04:42:38;101921.56;;;6.07;94.33
79586;BME280;69054;50.866;4.636;2023-04-16T04:45:04;101925.97;;;6.08;94.41
79586;BME280;69054;50.866;4.636;2023-04-16T04:47:29;101920.81;;;6.05;94.48
79586;BME280;69054;50.866;4.636;2023-04-16T04:49:55;101924.38;;;6.06;93.87
79586;BME280;69054;50.866;4.636;2023-04-16T04:52:20;101924.81;;;6.01;94.34
79586;BME280;69054;50.866;4.636;2023-04-16T04:54:45;101932.22;;;5.99;94.79
79586;BME280;69054;50.866;4.636;2023-04-16T04:57:11;101931.69;;;6.05;95.39
79586;BME280;69054;50.866;4.636;2023-04-16T04:59:36;101934.25;;;6.07;95.86
79586;BME280;69054;50.866;4.636;2023-04-16T05:02:01;101940.28;;;6.10;94.61
79586;BME280;69054;50.866;4.636;2023-04-16T05:04:28;101931.41;;;6.08;94.82
79586;BME280;69054;50.866;4.636;2023-04-16T05:06:54;101936.69;;;6.10;94.62
79586;BME280;69054;50.866;4.636;2023-04-16T05:09:19;101934.13;;;6.08;95.04
79586;BME280;69054;50.866;4.636;2023-04-16T05:11:44;101937.56;;;6.10;95.38
79586;BME280;69054;50.866;4.636;2023-04-16T05:14:10;101935.28;;;6.15;95.48
79586;BME280;69054;50.866;4.636;2023-04-16T05:16:36;101935.56;;;6.12;94.98
79586;BME280;69054;50.866;4.636;2023-04-16T05:19:01;101938.00;;;6.15;95.00
79586;BME280;69054;50.866;4.636;2023-04-16T05:21:27;101937.72;;;6.18;94.80
79586;BME280;69054;50.866;4.636;2023-04-16T05:23:52;101941.41;;;6.17;94.80
79586;BME280;69054;50.866;4.636;2023-04-16T05:26:18;101941.97;;;6.11;94.65
79586;BME280;69054;50.866;4.636;2023-04-16T05:28:44;101941.00;;;6.12;95.10
79586;BME280;69054;50.866;4.636;2023-04-16T05:31:10;101936.56;;;6.11;94.84
79586;BME280;69054;50.866;4.636;2023-04-16T05:33:35;101945.09;;;6.07;95.53
79586;BME280;69054;50.866;4.636;2023-04-16T05:36:01;101944.56;;;6.13;95.48
79586;BME280;69054;50.866;4.636;2023-04-16T05:38:26;101946.28;;;6.14;95.20
79586;BME280;69054;50.866;4.636;2023-04-16T05:40:51;101943.44;;;6.15;95.18
79586;BME280;69054;50.866;4.636;2023-04-16T05:43:17;101948.84;;;6.15;95.35
79586;BME280;69054;50.866;4.636;2023-04-16T05:45:42;101955.00;;;6.17;95.56
79586;BME280;69054;50.866;4.636;2023-04-16T05:48:08;101954.84;;;6.19;95.29
79586;BME280;69054;50.866;4.636;2023-04-16T05:50:34;101959.72;;;6.25;95.36
79586;BME280;69054;50.866;4.636;2023-04-16T05:53:05;101956.44;;;6.21;95.02
79586;BME280;69054;50.866;4.636;2023-04-16T05:55:30;101960.88;;;6.22;95.49
79586;BME280;69054;50.866;4.636;2023-04-16T05:57:56;101965.91;;;6.27;94.88
79586;BME280;69054;50.866;4.636;2023-04-16T06:00:21;101973.56;;;6.22;94.67
79586;BME280;69054;50.866;4.636;2023-04-16T06:02:46;101968.75;;;6.26;95.32
79586;BME280;69054;50.866;4.636;2023-04-16T06:05:12;101974.19;;;6.26;94.92
79586;BME280;69054;50.866;4.636;2023-04-16T06:07:37;101963.31;;;6.26;95.05
79586;BME280;69054;50.866;4.636;2023-04-16T06:10:03;101968.31;;;6.30;95.03
79586;BME280;69054;50.866;4.636;2023-04-16T06:12:28;101972.63;;;6.33;94.75
79586;BME280;69054;50.866;4.636;2023-04-16T06:14:54;101964.31;;;6.25;94.74
79586;BME280;69054;50.866;4.636;2023-04-16T06:17:19;101980.31;;;6.28;95.21
79586;BME280;69054;50.866;4.636;2023-04-16T06:19:45;101976.63;;;6.29;95.46
79586;BME280;69054;50.866;4.636;2023-04-16T06:22:10;101979.31;;;6.29;95.00
79586;BME280;69054;50.866;4.636;2023-04-16T06:24:36;101983.50;;;6.33;95.51
79586;BME280;69054;50.866;4.636;2023-04-16T06:27:01;101981.22;;;6.38;95.39
79586;BME280;69054;50.866;4.636;2023-04-16T06:29:27;101981.91;;;6.40;95.44
79586;BME280;69054;50.866;4.636;2023-04-16T06:31:53;101999.66;;;6.44;95.50
79586;BME280;69054;50.866;4.636;2023-04-16T06:34:18;101987.25;;;6.51;94.76
79586;BME280;69054;50.866;4.636;2023-04-16T06:36:44;101992.69;;;6.51;94.26
79586;BME280;69054;50.866;4.636;2023-04-16T06:39:09;101995.41;;;6.51;94.42
79586;BME280;69054;50.866;4.636;2023-04-16T06:41:35;102001.81;;;6.50;94.58
79586;BME280;69054;50.866;4.636;2023-04-16T06:44:01;102000.09;;;6.49;94.45
79586;BME280;69054;50.866;4.636;2023-04-16T06:46:26;102002.66;;;6.51;94.34
79586;BME280;69054;50.866;4.636;2023-04-16T06:48:51;102003.06;;;6.46;94.09
79586;BME280;69054;50.866;4.636;2023-04-16T06:51:17;102000.38;;;6.46;94.29
79586;BME280;69054;50.866;4.636;2023-04-16T06:53:43;102007.25;;;6.50;94.93
79586;BME280;69054;50.866;4.636;2023-04-16T06:56:09;102008.13;;;6.61;94.85
79586;BME280;69054;50.866;4.636;2023-04-16T06:58:34;102007.84;;;6.64;94.18
79586;BME280;69054;50.866;4.636;2023-04-16T07:01:01;102010.44;;;6.65;94.26
79586;BME280;69054;50.866;4.636;2023-04-16T07:03:27;102013.72;;;6.69;94.09
79586;BME280;69054;50.866;4.636;2023-04-16T07:05:52;102010.16;;;6.68;93.52
79586;BME280;69054;50.866;4.636;2023-04-16T07:08:17;102013.16;;;6.75;94.17
79586;BME280;69054;50.866;4.636;2023-04-16T07:10:43;102017.59;;;6.76;93.91
79586;BME280;69054;50.866;4.636;2023-04-16T07:13:09;102009.00;;;6.71;93.18
79586;BME280;69054;50.866;4.636;2023-04-16T07:15:34;102016.28;;;6.70;93.83
79586;BME280;69054;50.866;4.636;2023-04-16T07:18:00;102009.88;;;6.71;94.04
79586;BME280;69054;50.866;4.636;2023-04-16T07:20:25;102014.59;;;6.69;94.17
79586;BME280;69054;50.866;4.636;2023-04-16T07:22:51;102023.00;;;6.66;93.65
79586;BME280;69054;50.866;4.636;2023-04-16T07:25:16;102020.44;;;6.65;93.68
79586;BME280;69054;50.866;4.636;2023-04-16T07:27:42;102019.28;;;6.67;93.55
79586;BME280;69054;50.866;4.636;2023-04-16T07:30:07;102018.00;;;6.62;93.68
79586;BME280;69054;50.866;4.636;2023-04-16T07:32:33;102023.00;;;6.66;93.82
79586;BME280;69054;50.866;4.636;2023-04-16T07:34:59;102021.16;;;6.67;93.31
79586;BME280;69054;50.866;4.636;2023-04-16T07:37:24;102024.56;;;6.69;93.74
79586;BME280;69054;50.866;4.636;2023-04-16T07:39:50;102023.59;;;6.70;93.57
79586;BME280;69054;50.866;4.636;2023-04-16T07:42:16;102021.28;;;6.75;93.68
79586;BME280;69054;50.866;4.636;2023-04-16T07:44:42;102028.31;;;6.68;93.33
79586;BME280;69054;50.866;4.636;2023-04-16T07:47:07;102032.16;;;6.75;93.63
79586;BME280;69054;50.866;4.636;2023-04-16T07:49:33;102037.03;;;6.71;94.04
79586;BME280;69054;50.866;4.636;2023-04-16T07:51:58;102036.59;;;6.76;93.76
79586;BME280;69054;50.866;4.636;2023-04-16T07:54:23;102037.31;;;6.78;93.48
79586;BME280;69054;50.866;4.636;2023-04-16T07:56:49;102037.78;;;6.83;92.79
79586;BME280;69054;50.866;4.636;2023-04-16T07:59:14;102044.47;;;6.79;93.05
79586;BME280;69054;50.866;4.636;2023-04-16T08:01:40;102043.91;;;6.75;93.03
79586;BME280;69054;50.866;4.636;2023-04-16T08:04:05;102044.19;;;6.72;92.67
79586;BME280;69054;50.866;4.636;2023-04-16T08:06:31;102058.47;;;6.74;93.70
79586;BME280;69054;50.866;4.636;2023-04-16T08:08:56;102051.19;;;6.75;93.35
79586;BME280;69054;50.866;4.636;2023-04-16T08:11:22;102050.47;;;6.83;93.43
79586;BME280;69054;50.866;4.636;2023-04-16T08:13:48;102053.38;;;6.91;93.32
79586;BME280;69054;50.866;4.636;2023-04-16T08:16:14;102057.22;;;6.88;92.55
79586;BME280;69054;50.866;4.636;2023-04-16T08:18:39;102062.66;;;6.88;92.93
79586;BME280;69054;50.866;4.636;2023-04-16T08:21:05;102063.94;;;6.94;92.75
79586;BME280;69054;50.866;4.636;2023-04-16T08:23:31;102067.09;;;6.99;92.41
79586;BME280;69054;50.866;4.636;2023-04-16T08:25:56;102069.66;;;7.01;92.43
79586;BME280;69054;50.866;4.636;2023-04-16T08:28:22;102057.66;;;7.03;92.49
79586;BME280;69054;50.866;4.636;2023-04-16T08:30:47;102068.97;;;7.08;92.23
79586;BME280;69054;50.866;4.636;2023-04-16T08:33:13;102065.56;;;7.16;92.23
79586;BME280;69054;50.866;4.636;2023-04-16T08:35:38;102068.56;;;7.13;91.69
79586;BME280;69054;50.866;4.636;2023-04-16T08:38:04;102070.13;;;7.16;92.25
79586;BME280;69054;50.866;4.636;2023-04-16T08:40:34;102066.97;;;7.10;91.76
79586;BME280;69054;50.866;4.636;2023-04-16T08:43:05;102071.13;;;7.05;92.24
79586;BME280;69054;50.866;4.636;2023-04-16T08:45:33;102078.28;;;7.06;92.84
79586;BME280;69054;50.866;4.636;2023-04-16T08:47:59;102076.41;;;7.06;92.01
79586;BME280;69054;50.866;4.636;2023-04-16T08:50:26;102080.44;;;7.12;92.72
79586;BME280;69054;50.866;4.636;2023-04-16T08:52:59;102080.56;;;7.20;92.10
79586;BME280;69054;50.866;4.636;2023-04-16T08:55:50;102087.72;;;7.21;92.07
79586;BME280;69054;50.866;4.636;2023-04-16T08:58:21;102089.16;;;7.25;92.89
79586;BME280;69054;50.866;4.636;2023-04-16T09:00:47;102091.00;;;7.25;92.75
79586;BME280;69054;50.866;4.636;2023-04-16T09:03:13;102100.06;;;7.25;93.38
79586;BME280;69054;50.866;4.636;2023-04-16T09:05:41;102095.75;;;7.33;93.00
79586;BME280;69054;50.866;4.636;2023-04-16T09:08:07;102104.91;;;7.32;93.05
79586;BME280;69054;50.866;4.636;2023-04-16T09:10:32;102098.88;;;7.28;92.61
79586;BME280;69054;50.866;4.636;2023-04-16T09:12:58;102103.47;;;7.27;92.81
79586;BME280;69054;50.866;4.636;2023-04-16T09:15:24;102103.06;;;7.22;92.75
79586;BME280;69054;50.866;4.636;2023-04-16T09:17:53;102095.75;;;7.13;92.53
79586;BME280;69054;50.866;4.636;2023-04-16T09:20:20;102104.03;;;7.12;92.56
79586;BME280;69054;50.866;4.636;2023-04-16T09:22:46;102104.75;;;7.14;92.85
79586;BME280;69054;50.866;4.636;2023-04-16T09:25:12;102104.59;;;7.15;93.20
79586;BME280;69054;50.866;4.636;2023-04-16T09:27:38;102110.03;;;7.15;92.55
79586;BME280;69054;50.866;4.636;2023-04-16T09:30:24;102106.03;;;7.09;92.81
79586;BME280;69054;50.866;4.636;2023-04-16T09:32:51;102106.31;;;7.06;92.88
79586;BME280;69054;50.866;4.636;2023-04-16T09:35:18;102109.88;;;7.07;93.04
79586;BME280;69054;50.866;4.636;2023-04-16T09:37:53;102108.31;;;7.14;92.51
79586;BME280;69054;50.866;4.636;2023-04-16T09:40:23;102113.19;;;7.10;92.68
79586;BME280;69054;50.866;4.636;2023-04-16T09:42:49;102119.34;;;7.13;92.65
79586;BME280;69054;50.866;4.636;2023-04-16T09:45:15;102117.91;;;7.18;92.55
79586;BME280;69054;50.866;4.636;2023-04-16T09:47:42;102115.47;;;7.25;92.47
79586;BME280;69054;50.866;4.636;2023-04-16T09:50:09;102122.09;;;7.32;92.15
79586;BME280;69054;50.866;4.636;2023-04-16T09:52:37;102121.66;;;7.37;91.73
79586;BME280;69054;50.866;4.636;2023-04-16T09:55:03;102122.38;;;7.39;91.21
79586;BME280;69054;50.866;4.636;2023-04-16T09:57:29;102118.09;;;7.36;91.47
79586;BME280;69054;50.866;4.636;2023-04-16T10:00:00;102126.94;;;7.38;91.47
79586;BME280;69054;50.866;4.636;2023-04-16T10:02:27;102128.94;;;7.46;91.47
79586;BME280;69054;50.866;4.636;2023-04-16T10:04:53;102130.41;;;7.50;91.33
79586;BME280;69054;50.866;4.636;2023-04-16T10:07:19;102135.28;;;7.46;91.46
79586;BME280;69054;50.866;4.636;2023-04-16T10:09:46;102136.13;;;7.47;91.45
79586;BME280;69054;50.866;4.636;2023-04-16T10:12:13;102136.41;;;7.44;90.96
79586;BME280;69054;50.866;4.636;2023-04-16T10:14:39;102137.53;;;7.41;92.02
79586;BME280;69054;50.866;4.636;2023-04-16T10:17:06;102142.41;;;7.47;91.11
79586;BME280;69054;50.866;4.636;2023-04-16T10:19:31;102137.53;;;7.41;91.68
79586;BME280;69054;50.866;4.636;2023-04-16T10:21:57;102141.97;;;7.52;92.02
79586;BME280;69054;50.866;4.636;2023-04-16T10:24:27;102145.16;;;7.57;91.37
79586;BME280;69054;50.866;4.636;2023-04-16T10:26:53;102148.16;;;7.64;91.13
79586;BME280;69054;50.866;4.636;2023-04-16T10:29:20;102145.00;;;7.69;90.98
79586;BME280;69054;50.866;4.636;2023-04-16T10:31:46;102141.56;;;7.67;90.42
79586;BME280;69054;50.866;4.636;2023-04-16T10:34:12;102150.75;;;7.75;91.01
79586;BME280;69054;50.866;4.636;2023-04-16T10:36:38;102147.59;;;7.80;90.37
79586;BME280;69054;50.866;4.636;2023-04-16T10:39:09;102148.00;;;7.85;90.68
79586;BME280;69054;50.866;4.636;2023-04-16T10:41:41;102152.16;;;7.89;90.58
79586;BME280;69054;50.866;4.636;2023-04-16T10:44:08;102146.72;;;7.89;89.64
79586;BME280;69054;50.866;4.636;2023-04-16T10:46:45;102142.25;;;7.88;90.01
79586;BME280;69054;50.866;4.636;2023-04-16T10:49:19;102147.56;;;7.99;90.08
79586;BME280;69054;50.866;4.636;2023-04-16T10:51:57;102141.78;;;8.12;89.53
79586;BME280;69054;50.866;4.636;2023-04-16T10:54:25;102141.78;;;8.12;89.04
79586;BME280;69054;50.866;4.636;2023-04-16T10:56:51;102145.06;;;8.16;89.47
79586;BME280;69054;50.866;4.636;2023-04-16T10:59:18;102140.22;;;8.20;88.71
79586;BME280;69054;50.866;4.636;2023-04-16T11:01:46;102142.34;;;8.26;88.89
79586;BME280;69054;50.866;4.636;2023-04-16T11:12:11;102139.31;;;8.29;89.55
79586;BME280;69054;50.866;4.636;2023-04-16T11:22:50;102146.09;;;8.15;88.78
79586;BME280;69054;50.866;4.636;2023-04-16T11:25:20;102140.34;;;8.08;88.94
79586;BME280;69054;50.866;4.636;2023-04-16T11:27:47;102142.34;;;8.16;88.86
79586;BME280;69054;50.866;4.636;2023-04-16T11:30:12;102141.06;;;8.20;89.33
79586;BME280;69054;50.866;4.636;2023-04-16T11:32:38;102135.47;;;8.22;88.83
79586;BME280;69054;50.866;4.636;2023-04-16T11:35:13;102140.16;;;8.39;88.57
79586;BME280;69054;50.866;4.636;2023-04-16T11:37:39;102139.00;;;8.51;88.27
79586;BME280;69054;50.866;4.636;2023-04-16T11:40:05;102142.69;;;8.60;88.18
79586;BME280;69054;50.866;4.636;2023-04-16T11:42:33;102141.56;;;8.53;86.78
79586;BME280;69054;50.866;4.636;2023-04-16T11:45:01;102146.31;;;8.41;86.66
79586;BME280;69054;50.866;4.636;2023-04-16T11:47:31;102146.34;;;8.31;87.86
79586;BME280;69054;50.866;4.636;2023-04-16T11:49:58;102146.19;;;8.33;87.91
79586;BME280;69054;50.866;4.636;2023-04-16T11:52:39;102142.75;;;8.31;88.25
79586;BME280;69054;50.866;4.636;2023-04-16T11:55:04;102150.31;;;8.37;88.40
79586;BME280;69054;50.866;4.636;2023-04-16T11:57:30;102149.75;;;8.43;87.80
79586;BME280;69054;50.866;4.636;2023-04-16T11:59:57;102145.56;;;8.59;88.06
79586;BME280;69054;50.866;4.636;2023-04-16T12:02:42;102151.13;;;8.67;86.88
79586;BME280;69054;50.866;4.636;2023-04-16T12:05:35;102153.34;;;8.81;86.06
79586;BME280;69054;50.866;4.636;2023-04-16T12:08:04;102155.47;;;8.87;85.72
79586;BME280;69054;50.866;4.636;2023-04-16T12:10:32;102155.13;;;8.73;86.48
79586;BME280;69054;50.866;4.636;2023-04-16T12:13:16;102157.41;;;8.67;86.52
79586;BME280;69054;50.866;4.636;2023-04-16T12:18:10;102157.41;;;8.67;86.18
79586;BME280;69054;50.866;4.636;2023-04-16T12:20:39;102157.25;;;8.69;85.81
79586;BME280;69054;50.866;4.636;2023-04-16T12:23:08;102154.00;;;8.65;85.95
79586;BME280;69054;50.866;4.636;2023-04-16T12:25:34;102154.84;;;8.66;86.99
79586;BME280;69054;50.866;4.636;2023-04-16T12:27:59;102165.88;;;8.64;87.01
79586;BME280;69054;50.866;4.636;2023-04-16T12:30:26;102161.88;;;8.68;86.48
79586;BME280;69054;50.866;4.636;2023-04-16T12:33:13;102163.84;;;8.76;86.62
79586;BME280;69054;50.866;4.636;2023-04-16T12:35:40;102162.78;;;8.87;86.45
79586;BME280;69054;50.866;4.636;2023-04-16T12:38:07;102166.16;;;8.99;85.77
79586;BME280;69054;50.866;4.636;2023-04-16T12:40:33;102161.28;;;9.02;85.21
79586;BME280;69054;50.866;4.636;2023-04-16T12:42:58;102165.94;;;8.92;85.98
79586;BME280;69054;50.866;4.636;2023-04-16T12:45:24;102169.34;;;8.94;86.17
79586;BME280;69054;50.866;4.636;2023-04-16T12:47:49;102165.31;;;8.98;86.20
79586;BME280;69054;50.866;4.636;2023-04-16T12:50:15;102163.59;;;8.97;85.53
79586;BME280;69054;50.866;4.636;2023-04-16T12:52:40;102171.31;;;9.02;85.63
79586;BME280;69054;50.866;4.636;2023-04-16T12:55:06;102165.56;;;9.05;86.14
79586;BME280;69054;50.866;4.636;2023-04-16T12:57:31;102160.06;;;9.15;86.31
79586;BME280;69054;50.866;4.636;2023-04-16T12:59:57;102158.53;;;9.30;86.38
79586;BME280;69054;50.866;4.636;2023-04-16T13:02:23;102164.78;;;9.40;84.69
79586;BME280;69054;50.866;4.636;2023-04-16T13:04:53;102166.31;;;9.25;84.25
79586;BME280;69054;50.866;4.636;2023-04-16T13:07:19;102167.72;;;9.29;84.89
79586;BME280;69054;50.866;4.636;2023-04-16T13:09:45;102163.13;;;9.30;84.34
79586;BME280;69054;50.866;4.636;2023-04-16T13:12:10;102160.09;;;9.33;85.04
79586;BME280;69054;50.866;4.636;2023-04-16T13:14:36;102159.84;;;9.44;84.33